Terminal Aerodrome Forecast
Issued by NWS

Home | Current Version | Previous Version | Text Only | Print | Product List | Glossary On
Versions: 1 2 3 4 5 6 7 8 9 10 11 12 13 14 15 16 17 18 19 20 21 22 23 24 25 26 27 28 29 30 31 32 33 34 35 36
000
FTUS41 KOKX 290255 AAA
TAFGON
TAF AMD
KGON 290255Z 2903/2924 18005KT 6SM BR SCT005 OVC150
     FM290400 18003KT 6SM BR SCT004 OVC150
      TEMPO 2906/2910 2SM BR BKN004
     FM291000 VRB05KT 3SM SHRA BR VCTS SCT005 BKN012CB
      TEMPO 2910/2914 1SM BR BKN005
     FM291500 23010KT 6SM BR SCT015 BKN025
     FM291700 24014G20KT P6SM FEW040 BKN250
     FM292300 27010KT P6SM FEW040 BKN250=

USA.gov is the U.S. government's official web portal to all federal, state and local government web resources and services.